Buckingham, Texas
Current Conditions -  °F | °C
As of 12:55 AM on Thursday 23 Oct 2014 (Local Time) from KADS Reporting Station
Clear Clear  
Wind Chill: 70°   Ceiling: Unl
Heat Index: 70°   Visibility: 10mi
Dew Point: 55°   Wind: 9mph
Humidity: 60%   Direction: 120°ESE
Pressure: 30.12"   Gusts: NA
Location:  32.9743°N, 96.7425°W
Report Text: KADS 230555Z AUTO 12008KT 10SM CLR 21/13 A3012 RMK AO2 T02110130 10245 20211 402730180
Loading
Personal Weather Stations






























Interactive Weather Map
Tropical Storm Tracking
New forecast layout! Learn more

10-Day Weather Forecast

Advertisements
Track Severe Weather on mobile